Time;durP1;ratioP1;P1;durP2;ratioP2;P2;SDS_P1;SDS_P2;PMS_P1;PMS_P2;Temp;Humidity;BMP_temperature;BMP_pressure;BME280_temperature;BME280_humidity;BME280_pressure;Samples;Min_cycle;Max_cycle;Signal;HPM_P1;HPM_P2
2023/12/22 00:01:15;;;;;;;6.30;5.22;;;;;;;;;;6047830;29;20056;-92
2023/12/22 00:04:19;;;;;;;5.78;5.38;;;;;;;;;;6044276;29;20059;-91
2023/12/22 00:07:21;;;;;;;9.95;6.85;;;;;;;;;;6047356;29;20053;-92
2023/12/22 00:10:23;;;;;;;21.75;6.13;;;;;;;;;;6036232;29;20055;-91
2023/12/22 00:13:25;;;;;;;5.85;5.65;;;;;;;;;;6037568;29;20173;-91
2023/12/22 00:16:27;;;;;;;5.18;4.97;;;;;;;;;;6032904;29;20048;-90
2023/12/22 00:19:28;;;;;;;5.50;5.30;;;;;;;;;;6045084;29;20128;-92
2023/12/22 00:22:30;;;;;;;6.40;5.88;;;;;;;;;;6035120;29;20045;-92
2023/12/22 00:25:32;;;;;;;6.63;6.03;;;;;;;;;;6042769;29;20060;-93
2023/12/22 00:28:34;;;;;;;6.20;5.63;;;;;;;;;;6039069;29;20441;-92
2023/12/22 00:31:36;;;;;;;6.65;6.30;;;;;;;;;;6039857;29;20136;-92
2023/12/22 00:34:38;;;;;;;8.27;7.50;;;;;;;;;;6050021;29;20044;-92
2023/12/22 00:37:40;;;;;;;17.33;6.88;;;;;;;;;;6036215;29;20057;-92
2023/12/22 00:40:42;;;;;;;6.63;6.15;;;;;;;;;;6043862;29;20159;-90
2023/12/22 00:43:43;;;;;;;6.35;6.05;;;;;;;;;;6041028;29;20046;-91
2023/12/22 00:46:45;;;;;;;6.32;5.85;;;;;;;;;;6045072;29;20053;-92
2023/12/22 00:49:47;;;;;;;6.88;6.47;;;;;;;;;;6038947;29;20052;-92
2023/12/22 00:52:48;;;;;;;17.85;6.88;;;;;;;;;;6040592;29;20357;-93
2023/12/22 00:55:50;;;;;;;6.95;6.40;;;;;;;;;;6043373;29;20661;-93
2023/12/22 00:58:53;;;;;;;6.57;6.28;;;;;;;;;;6040775;29;20424;-91
2023/12/22 01:02:05;;;;;;;5.80;5.40;;;;;;;;;;6045234;29;20041;-92
2023/12/22 01:05:07;;;;;;;6.20;5.55;;;;;;;;;;6046790;29;20049;-93
2023/12/22 01:08:09;;;;;;;4.97;4.72;;;;;;;;;;6043567;29;20056;-93
2023/12/22 01:11:10;;;;;;;9.85;6.45;;;;;;;;;;6044886;29;20041;-92
2023/12/22 01:14:18;;;;;;;5.13;4.93;;;;;;;;;;6041885;29;20393;-92
2023/12/22 01:17:20;;;;;;;5.47;5.28;;;;;;;;;;6043736;29;20049;-94
2023/12/22 01:20:22;;;;;;;6.00;5.60;;;;;;;;;;6041630;29;20085;-91
2023/12/22 01:23:25;;;;;;;6.13;5.75;;;;;;;;;;6042601;29;20104;-92
2023/12/22 01:26:26;;;;;;;5.90;5.68;;;;;;;;;;6038301;29;20663;-92
2023/12/22 01:29:30;;;;;;;6.25;5.70;;;;;;;;;;6035558;29;20049;-92
2023/12/22 01:32:34;;;;;;;5.68;5.47;;;;;;;;;;6040273;29;20173;-93
2023/12/22 01:35:36;;;;;;;5.78;5.57;;;;;;;;;;6043702;29;20048;-93
2023/12/22 01:38:38;;;;;;;7.20;6.68;;;;;;;;;;6043423;29;20045;-91
2023/12/22 01:41:39;;;;;;;7.25;6.80;;;;;;;;;;6040580;29;20060;-91
2023/12/22 01:44:41;;;;;;;5.60;5.40;;;;;;;;;;6039596;29;20505;-88
2023/12/22 01:47:43;;;;;;;17.15;5.93;;;;;;;;;;6033399;29;20041;-89
2023/12/22 01:50:44;;;;;;;5.53;5.28;;;;;;;;;;6036392;29;20431;-88
2023/12/22 01:53:46;;;;;;;5.78;5.57;;;;;;;;;;6043514;29;20080;-88
2023/12/22 01:56:48;;;;;;;6.30;5.97;;;;;;;;;;6034182;29;20424;-90
2023/12/22 01:59:50;;;;;;;6.00;5.70;;;;;;;;;;6046124;29;20052;-89
2023/12/22 02:02:52;;;;;;;5.15;5.00;;;;;;;;;;6052462;29;20428;-89
2023/12/22 02:05:54;;;;;;;7.07;6.43;;;;;;;;;;6039260;29;20065;-89
2023/12/22 02:08:57;;;;;;;5.70;5.50;;;;;;;;;;6039216;29;20048;-90
2023/12/22 02:11:58;;;;;;;7.20;6.85;;;;;;;;;;6044261;29;20084;-91
2023/12/22 02:15:00;;;;;;;14.32;6.43;;;;;;;;;;6042220;29;20089;-89
2023/12/22 02:18:07;;;;;;;8.77;7.18;;;;;;;;;;6039298;29;20460;-90
2023/12/22 02:21:09;;;;;;;9.30;7.60;;;;;;;;;;6033538;29;20139;-89
2023/12/22 02:24:11;;;;;;;6.32;6.03;;;;;;;;;;6040810;29;20437;-88
2023/12/22 02:27:22;;;;;;;5.63;5.43;;;;;;;;;;6043752;29;20060;-88
2023/12/22 02:30:42;;;;;;;4.63;4.53;;;;;;;;;;6034458;29;20728;-89
2023/12/22 02:33:45;;;;;;;6.10;5.85;;;;;;;;;;6041995;29;20045;-88
2023/12/22 02:36:48;;;;;;;6.40;6.13;;;;;;;;;;6044198;29;20053;-88
2023/12/22 02:39:51;;;;;;;5.55;5.35;;;;;;;;;;6043823;29;20407;-89
2023/12/22 02:42:53;;;;;;;5.97;5.68;;;;;;;;;;6049105;29;20566;-90
2023/12/22 02:45:55;;;;;;;5.15;4.97;;;;;;;;;;6037020;29;20140;-89
2023/12/22 02:48:56;;;;;;;4.95;4.82;;;;;;;;;;6048397;29;20045;-89
2023/12/22 02:51:58;;;;;;;6.25;5.70;;;;;;;;;;6044639;29;20056;-90
2023/12/22 02:55:00;;;;;;;8.90;8.48;;;;;;;;;;6035431;29;20073;-90
2023/12/22 02:58:01;;;;;;;8.68;6.57;;;;;;;;;;6044012;29;20166;-90
2023/12/22 03:01:03;;;;;;;5.65;5.45;;;;;;;;;;6040303;29;20049;-89
2023/12/22 03:04:04;;;;;;;5.85;5.65;;;;;;;;;;6044925;29;20133;-91
2023/12/22 03:07:06;;;;;;;6.13;5.93;;;;;;;;;;6043674;29;20493;-91
2023/12/22 03:10:08;;;;;;;5.57;5.38;;;;;;;;;;6043354;29;20048;-90
2023/12/22 03:13:10;;;;;;;6.38;6.15;;;;;;;;;;6045826;29;20499;-90
2023/12/22 03:16:11;;;;;;;6.28;6.07;;;;;;;;;;6046575;29;20507;-90
2023/12/22 03:19:13;;;;;;;5.32;5.13;;;;;;;;;;6035692;29;20049;-89
2023/12/22 03:22:15;;;;;;;5.28;5.07;;;;;;;;;;6041146;29;20072;-90
2023/12/22 03:25:17;;;;;;;5.90;5.68;;;;;;;;;;6047668;29;20048;-90
2023/12/22 03:28:19;;;;;;;5.53;5.32;;;;;;;;;;6041064;29;20045;-90
2023/12/22 03:31:21;;;;;;;6.38;5.70;;;;;;;;;;6036570;29;20052;-91
2023/12/22 03:34:22;;;;;;;6.70;6.50;;;;;;;;;;6038372;29;20423;-91
2023/12/22 03:37:24;;;;;;;4.95;4.75;;;;;;;;;;6062855;29;20052;-91
2023/12/22 03:40:26;;;;;;;4.85;4.65;;;;;;;;;;6037673;29;20083;-91
2023/12/22 03:43:29;;;;;;;14.63;7.03;;;;;;;;;;6039372;29;20044;-91
2023/12/22 03:46:31;;;;;;;5.57;5.28;;;;;;;;;;6037945;29;20045;-92
2023/12/22 03:49:33;;;;;;;6.10;5.85;;;;;;;;;;6046400;29;20088;-90
2023/12/22 03:52:35;;;;;;;5.72;5.53;;;;;;;;;;6033594;29;20049;-92
2023/12/22 03:55:37;;;;;;;7.88;7.57;;;;;;;;;;6039853;29;20448;-92
2023/12/22 03:58:38;;;;;;;13.75;6.78;;;;;;;;;;6044596;29;20074;-91
2023/12/22 04:01:40;;;;;;;5.65;5.45;;;;;;;;;;6040822;29;20041;-88
2023/12/22 04:04:42;;;;;;;6.15;5.72;;;;;;;;;;6046142;29;20176;-91
2023/12/22 04:07:44;;;;;;;4.88;4.68;;;;;;;;;;6040385;29;20045;-88
2023/12/22 04:10:46;;;;;;;5.13;4.93;;;;;;;;;;6045723;29;20044;-88
2023/12/22 04:13:48;;;;;;;5.57;5.28;;;;;;;;;;6041584;29;20739;-87
2023/12/22 04:16:52;;;;;;;6.78;6.47;;;;;;;;;;6042590;29;20052;-88
2023/12/22 04:19:54;;;;;;;5.00;4.80;;;;;;;;;;6037339;29;20173;-88
2023/12/22 04:22:56;;;;;;;4.75;4.57;;;;;;;;;;6039281;29;20056;-88
2023/12/22 04:25:59;;;;;;;6.32;6.07;;;;;;;;;;6044213;29;20104;-89
2023/12/22 04:29:00;;;;;;;5.22;5.07;;;;;;;;;;6045326;29;20060;-89
2023/12/22 04:32:03;;;;;;;5.93;5.72;;;;;;;;;;6040292;29;20041;-89
2023/12/22 04:35:05;;;;;;;5.15;5.00;;;;;;;;;;6040437;29;20175;-89
2023/12/22 04:38:07;;;;;;;5.30;5.10;;;;;;;;;;6036448;29;20038;-90
2023/12/22 04:41:09;;;;;;;5.93;5.72;;;;;;;;;;6043684;29;20044;-88
2023/12/22 04:44:10;;;;;;;4.78;4.68;;;;;;;;;;6064071;29;20583;-88
2023/12/22 04:47:13;;;;;;;5.53;5.32;;;;;;;;;;6041804;29;20350;-89
2023/12/22 04:50:14;;;;;;;4.72;4.63;;;;;;;;;;6043842;29;20149;-89
2023/12/22 04:53:16;;;;;;;5.00;4.88;;;;;;;;;;6040689;29;20511;-89
2023/12/22 04:56:18;;;;;;;6.10;5.80;;;;;;;;;;6037983;29;20048;-91
2023/12/22 04:59:19;;;;;;;7.85;6.50;;;;;;;;;;6043431;29;20033;-90
2023/12/22 05:02:21;;;;;;;5.10;4.90;;;;;;;;;;6047408;29;20146;-90
2023/12/22 05:05:23;;;;;;;6.40;6.20;;;;;;;;;;6041263;29;20136;-90
2023/12/22 05:08:25;;;;;;;5.28;5.07;;;;;;;;;;6043585;29;20512;-90
2023/12/22 05:11:26;;;;;;;6.63;6.22;;;;;;;;;;6037048;29;20045;-91
2023/12/22 05:14:28;;;;;;;6.07;5.78;;;;;;;;;;6041777;29;20053;-91
2023/12/22 05:17:29;;;;;;;5.32;5.18;;;;;;;;;;6039715;29;20381;-90
2023/12/22 05:20:31;;;;;;;5.63;5.25;;;;;;;;;;6043599;29;20056;-92
2023/12/22 05:23:33;;;;;;;5.25;5.05;;;;;;;;;;6042092;29;21297;-92
2023/12/22 05:26:34;;;;;;;6.80;5.60;;;;;;;;;;6043870;29;20491;-91
2023/12/22 05:29:36;;;;;;;4.60;4.50;;;;;;;;;;6035916;29;20062;-89
2023/12/22 05:32:38;;;;;;;6.28;5.97;;;;;;;;;;6038660;29;20045;-92
2023/12/22 05:35:40;;;;;;;7.15;5.03;;;;;;;;;;6040958;29;20365;-91
2023/12/22 05:38:41;;;;;;;6.68;6.05;;;;;;;;;;6045157;29;20048;-91
2023/12/22 05:41:43;;;;;;;4.93;4.82;;;;;;;;;;6042234;29;20045;-91
2023/12/22 05:44:49;;;;;;;5.22;5.03;;;;;;;;;;6038267;29;20053;-90
2023/12/22 05:47:51;;;;;;;6.03;5.68;;;;;;;;;;6034251;29;20143;-90
2023/12/22 05:50:55;;;;;;;6.40;5.82;;;;;;;;;;6038234;29;20053;-91
2023/12/22 05:53:57;;;;;;;5.82;5.53;;;;;;;;;;6034845;29;20144;-91
2023/12/22 05:56:59;;;;;;;5.85;5.65;;;;;;;;;;6038906;29;20761;-91
2023/12/22 06:00:04;;;;;;;14.82;6.18;;;;;;;;;;6041984;29;20049;-89
2023/12/22 06:03:06;;;;;;;6.43;6.13;;;;;;;;;;6038494;29;20041;-89
2023/12/22 06:06:07;;;;;;;6.00;5.80;;;;;;;;;;6047993;29;20056;-89
2023/12/22 06:09:12;;;;;;;8.85;5.72;;;;;;;;;;6047489;29;20093;-89
2023/12/22 06:12:13;;;;;;;5.13;4.93;;;;;;;;;;6051257;29;20503;-91
2023/12/22 06:15:15;;;;;;;5.43;5.22;;;;;;;;;;6039525;29;20044;-91
2023/12/22 06:18:17;;;;;;;5.38;5.18;;;;;;;;;;6045100;29;20061;-90
2023/12/22 06:21:19;;;;;;;8.65;8.35;;;;;;;;;;6043937;29;20044;-91
2023/12/22 06:24:21;;;;;;;5.40;5.20;;;;;;;;;;6040156;29;20048;-90
2023/12/22 06:27:22;;;;;;;5.88;5.68;;;;;;;;;;6046981;29;20048;-90
2023/12/22 06:30:24;;;;;;;5.70;5.45;;;;;;;;;;6022772;29;20453;-91
2023/12/22 06:33:26;;;;;;;6.28;6.07;;;;;;;;;;6054833;29;20056;-95
2023/12/22 06:36:29;;;;;;;6.00;5.80;;;;;;;;;;6049441;29;20420;-91
2023/12/22 06:39:31;;;;;;;7.22;7.03;;;;;;;;;;6047912;29;20072;-89
2023/12/22 06:42:33;;;;;;;7.18;6.78;;;;;;;;;;6053431;29;20413;-93
2023/12/22 06:45:35;;;;;;;5.22;5.03;;;;;;;;;;6048326;29;20041;-93
2023/12/22 06:48:37;;;;;;;5.10;4.90;;;;;;;;;;6044587;29;20049;-91
2023/12/22 06:51:39;;;;;;;5.03;4.82;;;;;;;;;;6047825;29;20041;-90
2023/12/22 06:54:41;;;;;;;5.60;5.40;;;;;;;;;;6047744;29;20056;-90
2023/12/22 06:57:43;;;;;;;4.97;4.88;;;;;;;;;;6038507;29;20112;-92
2023/12/22 07:00:46;;;;;;;6.20;6.00;;;;;;;;;;6045404;29;20045;-93
2023/12/22 07:03:49;;;;;;;6.38;6.07;;;;;;;;;;6049761;29;20170;-91
2023/12/22 07:06:51;;;;;;;5.78;5.47;;;;;;;;;;6043668;29;20045;-92
2023/12/22 07:09:53;;;;;;;5.47;5.28;;;;;;;;;;6050455;29;20041;-93
2023/12/22 07:12:55;;;;;;;9.95;7.10;;;;;;;;;;6048084;29;20045;-95
2023/12/22 07:15:57;;;;;;;6.60;6.20;;;;;;;;;;6058812;29;20053;-96
2023/12/22 07:18:59;;;;;;;9.38;5.40;;;;;;;;;;6053385;29;20049;-94
2023/12/22 07:22:02;;;;;;;6.82;6.50;;;;;;;;;;6041047;29;20053;-91
2023/12/22 07:25:04;;;;;;;6.18;5.88;;;;;;;;;;6050053;29;20049;-91
2023/12/22 07:28:07;;;;;;;7.22;6.93;;;;;;;;;;6052010;29;20041;-92
2023/12/22 07:31:09;;;;;;;9.82;5.35;;;;;;;;;;6046977;29;20056;-92
2023/12/22 07:34:11;;;;;;;5.72;5.53;;;;;;;;;;6041965;29;20049;-91
2023/12/22 07:37:13;;;;;;;6.35;5.35;;;;;;;;;;6044851;29;20152;-96
2023/12/22 07:40:15;;;;;;;5.85;5.60;;;;;;;;;;6042930;29;20049;-95
2023/12/22 07:43:18;;;;;;;5.50;5.30;;;;;;;;;;6046145;29;20583;-92
2023/12/22 07:46:22;;;;;;;6.40;6.00;;;;;;;;;;6046617;29;20041;-91
2023/12/22 07:49:25;;;;;;;5.32;5.07;;;;;;;;;;6045790;29;20059;-92
2023/12/22 07:52:27;;;;;;;5.22;5.03;;;;;;;;;;6045369;29;20049;-91
2023/12/22 07:55:29;;;;;;;4.63;4.53;;;;;;;;;;6046147;29;20045;-94
2023/12/22 07:58:32;;;;;;;7.07;6.68;;;;;;;;;;6048946;29;20131;-93
2023/12/22 08:01:34;;;;;;;10.63;6.93;;;;;;;;;;6025553;29;20575;-93
2023/12/22 08:04:35;;;;;;;7.70;6.50;;;;;;;;;;6047862;29;20511;-90
2023/12/22 08:07:37;;;;;;;5.97;5.78;;;;;;;;;;6049691;29;20478;-92
2023/12/22 08:10:39;;;;;;;6.97;6.78;;;;;;;;;;6045422;29;20045;-90
2023/12/22 08:13:41;;;;;;;18.05;7.03;;;;;;;;;;6039158;29;20056;-90
2023/12/22 08:16:44;;;;;;;8.93;5.38;;;;;;;;;;6046289;29;20049;-90
2023/12/22 08:19:47;;;;;;;10.07;6.90;;;;;;;;;;6041278;29;20432;-88
2023/12/22 08:22:50;;;;;;;7.47;6.82;;;;;;;;;;6047237;29;20065;-87
2023/12/22 08:25:55;;;;;;;5.22;5.10;;;;;;;;;;6048956;29;20411;-86
2023/12/22 08:28:56;;;;;;;5.57;5.38;;;;;;;;;;6042359;29;20051;-86
2023/12/22 08:31:58;;;;;;;7.03;6.65;;;;;;;;;;6046124;29;20113;-87
2023/12/22 08:35:00;;;;;;;5.63;5.43;;;;;;;;;;6044124;29;20049;-86
2023/12/22 08:38:02;;;;;;;5.47;5.22;;;;;;;;;;6038790;29;20480;-86
2023/12/22 08:41:04;;;;;;;5.10;4.80;;;;;;;;;;6035289;29;20041;-85
2023/12/22 08:44:08;;;;;;;6.00;5.80;;;;;;;;;;6047694;29;20844;-86
2023/12/22 08:47:10;;;;;;;5.95;5.72;;;;;;;;;;6045329;29;20404;-85
2023/12/22 08:50:12;;;;;;;7.88;7.18;;;;;;;;;;6042170;29;20041;-85
2023/12/22 08:53:14;;;;;;;5.55;5.35;;;;;;;;;;6057409;29;20478;-85
2023/12/22 08:56:17;;;;;;;6.45;6.13;;;;;;;;;;6049770;29;20045;-86
2023/12/22 08:59:19;;;;;;;21.40;5.95;;;;;;;;;;6047510;29;20059;-85
2023/12/22 09:02:26;;;;;;;5.00;4.78;;;;;;;;;;6045792;29;20044;-85
2023/12/22 09:05:27;;;;;;;8.20;6.35;;;;;;;;;;6043858;29;20041;-86
2023/12/22 09:08:29;;;;;;;5.20;4.90;;;;;;;;;;6041940;29;20045;-85
2023/12/22 09:11:31;;;;;;;5.70;5.43;;;;;;;;;;6040328;29;20039;-85
2023/12/22 09:14:32;;;;;;;8.20;6.00;;;;;;;;;;6043006;29;20076;-86
2023/12/22 09:17:34;;;;;;;5.35;5.15;;;;;;;;;;6037608;29;20044;-86
2023/12/22 09:20:36;;;;;;;7.03;5.63;;;;;;;;;;6043613;29;20472;-86
2023/12/22 09:23:38;;;;;;;6.10;5.63;;;;;;;;;;6038005;29;20507;-87
2023/12/22 09:26:40;;;;;;;5.53;5.25;;;;;;;;;;6049539;29;20096;-87
2023/12/22 09:29:42;;;;;;;4.63;4.53;;;;;;;;;;6046719;29;20156;-88
2023/12/22 09:32:43;;;;;;;5.93;5.72;;;;;;;;;;6042150;29;20552;-88
2023/12/22 09:35:46;;;;;;;5.25;5.03;;;;;;;;;;6042510;29;20052;-87
2023/12/22 09:38:48;;;;;;;7.53;7.32;;;;;;;;;;6042386;29;20037;-88
2023/12/22 09:41:50;;;;;;;4.90;4.80;;;;;;;;;;6034811;29;20177;-88
2023/12/22 09:44:53;;;;;;;7.93;7.57;;;;;;;;;;6037757;29;20044;-89
2023/12/22 09:47:56;;;;;;;5.93;5.72;;;;;;;;;;6041460;29;20293;-89
2023/12/22 09:50:59;;;;;;;4.95;4.85;;;;;;;;;;6036301;29;20081;-88
2023/12/22 09:54:02;;;;;;;12.77;4.93;;;;;;;;;;6069009;29;20079;-88
2023/12/22 09:57:06;;;;;;;6.03;5.75;;;;;;;;;;6045014;29;20144;-88
2023/12/22 10:00:23;;;;;;;15.98;5.82;;;;;;;;;;6040599;29;20084;-88
2023/12/22 10:03:25;;;;;;;13.00;5.53;;;;;;;;;;6045214;29;20051;-87
2023/12/22 10:06:28;;;;;;;5.15;4.95;;;;;;;;;;6051003;29;20148;-90
2023/12/22 10:09:29;;;;;;;6.28;5.97;;;;;;;;;;6045952;29;20048;-89
2023/12/22 10:12:33;;;;;;;5.38;5.18;;;;;;;;;;6039525;29;20041;-88
2023/12/22 10:15:42;;;;;;;4.80;4.63;;;;;;;;;;6039885;29;20045;-87
2023/12/22 10:18:44;;;;;;;7.03;5.45;;;;;;;;;;6060413;29;20056;-88
2023/12/22 10:21:47;;;;;;;5.18;5.00;;;;;;;;;;6041232;29;20735;-88
2023/12/22 10:24:50;;;;;;;6.05;5.85;;;;;;;;;;6042349;29;20399;-88
2023/12/22 10:27:52;;;;;;;5.53;5.32;;;;;;;;;;6045219;29;20093;-88
2023/12/22 10:30:56;;;;;;;16.77;6.10;;;;;;;;;;6043662;29;20065;-88
2023/12/22 10:33:57;;;;;;;6.03;5.82;;;;;;;;;;6042121;29;20052;-88
2023/12/22 10:37:00;;;;;;;5.90;5.65;;;;;;;;;;6045893;29;20559;-89
2023/12/22 10:40:05;;;;;;;5.25;5.03;;;;;;;;;;6043079;29;20054;-89
2023/12/22 10:43:08;;;;;;;9.75;7.00;;;;;;;;;;6034294;29;20479;-88
2023/12/22 10:46:10;;;;;;;4.97;4.88;;;;;;;;;;6038566;29;20075;-88
2023/12/22 10:49:13;;;;;;;5.47;5.28;;;;;;;;;;6065355;29;20072;-89
2023/12/22 10:52:16;;;;;;;4.82;4.63;;;;;;;;;;6047573;29;20084;-86
2023/12/22 10:55:18;;;;;;;5.85;5.65;;;;;;;;;;6043036;29;20079;-87
2023/12/22 10:58:21;;;;;;;4.55;4.45;;;;;;;;;;6048999;29;20447;-86
2023/12/22 11:01:23;;;;;;;5.63;5.13;;;;;;;;;;6049218;29;20056;-87
2023/12/22 11:04:29;;;;;;;5.47;5.28;;;;;;;;;;6048880;29;20074;-89
2023/12/22 11:07:33;;;;;;;6.20;5.90;;;;;;;;;;6052177;29;20354;-88
2023/12/22 11:10:38;;;;;;;5.57;5.28;;;;;;;;;;6043446;29;20054;-87
2023/12/22 11:13:40;;;;;;;8.05;7.75;;;;;;;;;;6036284;29;20135;-89
2023/12/22 11:16:47;;;;;;;7.18;6.50;;;;;;;;;;6049124;29;20100;-89
2023/12/22 11:19:50;;;;;;;7.18;6.78;;;;;;;;;;6057610;29;20677;-89
2023/12/22 11:22:52;;;;;;;8.57;6.78;;;;;;;;;;6035200;29;20185;-86
2023/12/22 11:25:54;;;;;;;4.72;4.63;;;;;;;;;;6045733;29;20049;-88
2023/12/22 11:28:56;;;;;;;6.03;5.65;;;;;;;;;;6047437;29;20053;-88
2023/12/22 11:31:59;;;;;;;4.82;4.72;;;;;;;;;;6036103;29;20498;-88
2023/12/22 11:35:02;;;;;;;12.15;11.68;;;;;;;;;;6041570;29;20049;-88
2023/12/22 11:38:05;;;;;;;6.30;5.85;;;;;;;;;;6050322;29;20044;-86
2023/12/22 11:41:10;;;;;;;5.10;4.95;;;;;;;;;;6047072;29;20037;-86
2023/12/22 11:44:12;;;;;;;5.78;5.57;;;;;;;;;;6037431;29;20133;-87
2023/12/22 11:47:14;;;;;;;6.43;6.00;;;;;;;;;;6043127;29;20049;-86
2023/12/22 11:50:31;;;;;;;5.30;5.10;;;;;;;;;;6048143;29;20407;-86
2023/12/22 11:53:33;;;;;;;16.50;6.95;;;;;;;;;;6046210;29;20106;-86
2023/12/22 11:56:36;;;;;;;6.70;6.40;;;;;;;;;;6046692;29;20185;-88
2023/12/22 11:59:38;;;;;;;6.40;6.05;;;;;;;;;;6051264;29;20057;-86
2023/12/22 12:02:40;;;;;;;5.63;5.43;;;;;;;;;;6040495;29;20393;-87
2023/12/22 12:05:42;;;;;;;5.18;5.03;;;;;;;;;;6055128;29;20056;-85
2023/12/22 12:08:44;;;;;;;5.50;5.20;;;;;;;;;;6048651;29;20113;-85
2023/12/22 12:11:52;;;;;;;5.68;5.47;;;;;;;;;;6042261;29;20057;-86
2023/12/22 12:14:57;;;;;;;4.28;4.18;;;;;;;;;;6041710;29;20116;-85
2023/12/22 12:17:59;;;;;;;4.97;4.78;;;;;;;;;;6045277;29;20116;-86
2023/12/22 12:21:01;;;;;;;5.78;5.47;;;;;;;;;;6037451;29;20181;-85
2023/12/22 12:24:05;;;;;;;5.05;4.75;;;;;;;;;;6052291;29;20037;-85
2023/12/22 12:27:07;;;;;;;4.85;4.75;;;;;;;;;;6045554;29;20049;-85
2023/12/22 12:30:12;;;;;;;4.82;4.68;;;;;;;;;;6048323;29;20045;-85
2023/12/22 12:33:14;;;;;;;4.35;4.25;;;;;;;;;;6041488;29;20176;-85
2023/12/22 12:36:16;;;;;;;4.40;4.30;;;;;;;;;;6052292;29;20063;-85
2023/12/22 12:39:21;;;;;;;4.82;4.72;;;;;;;;;;6042193;29;20049;-85
2023/12/22 12:42:23;;;;;;;5.85;5.65;;;;;;;;;;6046307;29;20057;-85
2023/12/22 12:45:25;;;;;;;4.63;4.53;;;;;;;;;;6049179;29;20411;-85
2023/12/22 12:48:27;;;;;;;5.07;4.80;;;;;;;;;;6046982;29;20585;-85
2023/12/22 12:51:29;;;;;;;4.65;4.55;;;;;;;;;;6046762;29;20492;-85
2023/12/22 12:54:31;;;;;;;4.75;4.65;;;;;;;;;;6036683;29;20045;-85
2023/12/22 12:57:33;;;;;;;5.28;5.07;;;;;;;;;;6049936;29;20400;-86
2023/12/22 13:00:35;;;;;;;5.22;5.03;;;;;;;;;;6047139;29;20120;-86
2023/12/22 13:03:56;;;;;;;4.82;4.68;;;;;;;;;;6047954;29;20045;-85
2023/12/22 13:06:59;;;;;;;4.93;4.72;;;;;;;;;;6044915;29;20131;-86
2023/12/22 13:10:00;;;;;;;4.75;4.65;;;;;;;;;;6046709;29;20048;-85
2023/12/22 13:13:02;;;;;;;5.20;4.88;;;;;;;;;;6044607;29;20139;-85
2023/12/22 13:16:05;;;;;;;5.70;5.43;;;;;;;;;;6035888;29;20045;-86
2023/12/22 13:19:07;;;;;;;7.82;5.07;;;;;;;;;;6051768;29;20436;-86
2023/12/22 13:22:09;;;;;;;4.93;4.78;;;;;;;;;;6040336;29;20484;-85
2023/12/22 13:25:11;;;;;;;4.70;4.60;;;;;;;;;;6043724;29;20217;-85
2023/12/22 13:28:14;;;;;;;6.07;5.57;;;;;;;;;;6045467;29;20227;-85
2023/12/22 13:31:19;;;;;;;5.93;5.68;;;;;;;;;;6039903;29;20535;-85
2023/12/22 13:34:21;;;;;;;4.88;4.68;;;;;;;;;;6036812;29;20076;-85
2023/12/22 13:37:26;;;;;;;5.43;5.22;;;;;;;;;;6044323;29;20056;-86
2023/12/22 13:40:31;;;;;;;5.55;5.35;;;;;;;;;;6045981;29;20286;-86
2023/12/22 13:43:33;;;;;;;5.43;5.03;;;;;;;;;;6045352;29;20049;-85
2023/12/22 13:46:35;;;;;;;5.07;4.88;;;;;;;;;;6047707;29;20598;-85
2023/12/22 13:49:37;;;;;;;4.40;4.30;;;;;;;;;;6042540;29;20120;-86
2023/12/22 13:52:39;;;;;;;5.00;4.90;;;;;;;;;;6042839;29;20049;-86
2023/12/22 13:55:43;;;;;;;4.75;4.65;;;;;;;;;;6052380;29;20458;-86
2023/12/22 13:58:46;;;;;;;5.70;5.50;;;;;;;;;;6060051;29;20075;-86
2023/12/22 14:01:48;;;;;;;5.53;5.32;;;;;;;;;;6044160;29;20586;-86
2023/12/22 14:04:50;;;;;;;5.13;4.93;;;;;;;;;;6044363;29;20070;-85
2023/12/22 14:07:53;;;;;;;5.50;5.20;;;;;;;;;;6037464;29;20053;-86
2023/12/22 14:10:55;;;;;;;4.63;4.50;;;;;;;;;;6039326;29;20045;-86
2023/12/22 14:13:57;;;;;;;5.72;5.43;;;;;;;;;;6044517;29;20157;-85
2023/12/22 14:16:59;;;;;;;4.57;4.47;;;;;;;;;;6048591;29;20036;-85
2023/12/22 14:20:01;;;;;;;5.53;5.32;;;;;;;;;;6044746;29;20052;-85
2023/12/22 14:23:03;;;;;;;4.50;4.38;;;;;;;;;;6052626;29;20041;-86
2023/12/22 14:26:05;;;;;;;5.78;5.55;;;;;;;;;;6049221;29;20151;-86
2023/12/22 14:29:07;;;;;;;4.75;4.63;;;;;;;;;;6052224;29;20048;-86
2023/12/22 14:32:14;;;;;;;5.22;5.03;;;;;;;;;;6049645;29;20047;-86
2023/12/22 14:35:16;;;;;;;4.53;4.43;;;;;;;;;;6042734;29;20045;-86
2023/12/22 14:38:17;;;;;;;4.20;4.10;;;;;;;;;;6044234;29;20563;-86
2023/12/22 14:41:19;;;;;;;4.68;4.47;;;;;;;;;;6039929;29;20060;-85
2023/12/22 14:44:21;;;;;;;5.70;5.40;;;;;;;;;;6046923;29;20056;-86
2023/12/22 14:47:23;;;;;;;5.45;5.25;;;;;;;;;;6044158;29;20523;-86
2023/12/22 14:50:25;;;;;;;4.82;4.63;;;;;;;;;;6044069;29;20185;-86
2023/12/22 14:53:28;;;;;;;5.05;4.95;;;;;;;;;;6043453;29;20057;-86
2023/12/22 14:56:32;;;;;;;5.75;5.35;;;;;;;;;;6062780;29;20071;-86
2023/12/22 14:59:35;;;;;;;4.75;4.55;;;;;;;;;;6068975;29;20061;-86
2023/12/22 15:02:37;;;;;;;4.72;4.60;;;;;;;;;;6045544;29;20057;-86
2023/12/22 15:05:39;;;;;;;6.47;5.47;;;;;;;;;;6053192;29;20044;-85
2023/12/22 15:08:41;;;;;;;4.65;4.55;;;;;;;;;;6054235;29;20116;-86
2023/12/22 15:11:43;;;;;;;5.53;5.30;;;;;;;;;;6050924;29;20053;-86
2023/12/22 15:14:46;;;;;;;5.53;5.22;;;;;;;;;;6048311;29;20045;-85
2023/12/22 15:17:48;;;;;;;5.15;4.95;;;;;;;;;;6043465;29;20434;-85
2023/12/22 15:20:51;;;;;;;6.97;5.13;;;;;;;;;;6041072;29;20408;-87
2023/12/22 15:23:53;;;;;;;4.22;4.13;;;;;;;;;;6045882;29;20049;-85
2023/12/22 15:26:55;;;;;;;4.95;4.75;;;;;;;;;;6047994;29;20056;-85
2023/12/22 15:29:56;;;;;;;5.40;5.18;;;;;;;;;;6048212;29;20072;-85
2023/12/22 15:33:00;;;;;;;4.95;4.82;;;;;;;;;;6040362;29;20042;-84
2023/12/22 15:36:02;;;;;;;5.22;5.03;;;;;;;;;;6047566;29;20089;-85
2023/12/22 15:39:04;;;;;;;5.13;4.93;;;;;;;;;;6051818;29;20048;-85
2023/12/22 15:42:06;;;;;;;5.40;5.20;;;;;;;;;;6053048;29;20041;-85
2023/12/22 15:45:08;;;;;;;5.07;4.88;;;;;;;;;;6045790;29;20376;-85
2023/12/22 15:48:09;;;;;;;5.57;5.38;;;;;;;;;;6051228;29;20041;-84
2023/12/22 15:51:12;;;;;;;7.88;5.30;;;;;;;;;;6043228;29;20093;-85
2023/12/22 15:54:17;;;;;;;5.65;5.45;;;;;;;;;;6044027;29;20403;-84
2023/12/22 15:57:19;;;;;;;4.60;4.50;;;;;;;;;;6045392;29;20448;-83
2023/12/22 16:00:21;;;;;;;5.88;5.63;;;;;;;;;;6045862;29;20060;-85
2023/12/22 16:03:23;;;;;;;6.40;6.13;;;;;;;;;;6051175;29;20052;-86
2023/12/22 16:06:25;;;;;;;4.78;4.68;;;;;;;;;;6060135;29;20043;-86
2023/12/22 16:09:27;;;;;;;5.43;5.22;;;;;;;;;;6041244;29;20045;-87
2023/12/22 16:12:31;;;;;;;5.75;5.55;;;;;;;;;;6037354;29;20124;-87
2023/12/22 16:15:34;;;;;;;6.95;6.70;;;;;;;;;;6049765;29;20064;-84
2023/12/22 16:18:38;;;;;;;6.15;5.95;;;;;;;;;;6051907;29;20443;-86
2023/12/22 16:21:41;;;;;;;5.95;5.75;;;;;;;;;;6048986;29;20049;-89
2023/12/22 16:24:43;;;;;;;4.97;4.88;;;;;;;;;;6043854;29;20053;-88
2023/12/22 16:27:45;;;;;;;5.88;5.47;;;;;;;;;;6042396;29;20064;-86
2023/12/22 16:30:47;;;;;;;6.20;6.00;;;;;;;;;;6046228;29;20492;-85
2023/12/22 16:33:49;;;;;;;5.47;5.28;;;;;;;;;;6039119;29;20132;-86
2023/12/22 16:36:51;;;;;;;5.63;5.43;;;;;;;;;;6043534;29;20037;-85
2023/12/22 16:39:53;;;;;;;5.65;5.45;;;;;;;;;;6045334;29;20430;-86
2023/12/22 16:42:55;;;;;;;5.68;5.47;;;;;;;;;;6051924;29;20064;-89
2023/12/22 16:46:00;;;;;;;6.22;6.03;;;;;;;;;;6041034;29;20492;-94
2023/12/22 16:49:06;;;;;;;5.22;5.03;;;;;;;;;;6048326;29;20049;-95
2023/12/22 16:52:09;;;;;;;5.30;5.10;;;;;;;;;;6045687;29;20053;-95
2023/12/22 16:55:17;;;;;;;5.35;5.15;;;;;;;;;;6055623;29;20049;-96
2023/12/22 16:58:19;;;;;;;5.95;5.47;;;;;;;;;;6047158;29;20575;-96
2023/12/22 17:01:21;;;;;;;6.32;6.03;;;;;;;;;;6050252;29;20041;-93
2023/12/22 17:04:41;;;;;;;6.20;6.00;;;;;;;;;;6049968;29;20041;-90
2023/12/22 17:07:44;;;;;;;5.72;5.53;;;;;;;;;;6054020;29;20053;-94
2023/12/22 17:10:50;;;;;;;6.57;6.38;;;;;;;;;;6039214;29;20131;-94
2023/12/22 17:13:52;;;;;;;4.93;4.82;;;;;;;;;;6044252;29;20049;-92
2023/12/22 17:16:54;;;;;;;6.20;6.00;;;;;;;;;;6037313;29;20609;-94
2023/12/22 17:19:56;;;;;;;5.07;4.88;;;;;;;;;;6040909;29;20081;-94
2023/12/22 17:23:00;;;;;;;6.25;6.03;;;;;;;;;;6044512;29;20254;-92
2023/12/22 17:26:02;;;;;;;6.97;6.57;;;;;;;;;;6039201;29;20051;-92
2023/12/22 17:29:06;;;;;;;5.28;5.07;;;;;;;;;;6042182;29;20049;-91
2023/12/22 17:32:09;;;;;;;7.00;6.60;;;;;;;;;;6040123;29;20100;-90
2023/12/22 17:35:11;;;;;;;5.57;5.38;;;;;;;;;;6044053;29;20048;-91
2023/12/22 17:38:13;;;;;;;6.03;5.80;;;;;;;;;;6037835;29;20066;-92
2023/12/22 17:41:16;;;;;;;5.80;5.60;;;;;;;;;;6045586;29;20048;-95
2023/12/22 17:44:18;;;;;;;5.70;5.45;;;;;;;;;;6042526;29;20284;-94
2023/12/22 17:47:22;;;;;;;5.45;5.25;;;;;;;;;;6034647;29;20049;-95
2023/12/22 17:50:23;;;;;;;5.70;5.50;;;;;;;;;;6046401;29;20484;-92
2023/12/22 17:53:27;;;;;;;7.03;6.82;;;;;;;;;;6040714;29;20088;-92
2023/12/22 17:56:29;;;;;;;6.15;5.95;;;;;;;;;;6040914;29;20556;-94
2023/12/22 17:59:31;;;;;;;6.65;6.45;;;;;;;;;;6049724;29;20131;-90
2023/12/22 18:02:33;;;;;;;6.72;6.53;;;;;;;;;;6052637;29;20047;-90
2023/12/22 18:05:35;;;;;;;5.95;5.75;;;;;;;;;;6053732;29;20059;-92
2023/12/22 18:08:39;;;;;;;4.75;4.65;;;;;;;;;;6051037;29;20507;-93
2023/12/22 18:11:42;;;;;;;4.75;4.65;;;;;;;;;;6051226;29;20041;-91
2023/12/22 18:14:44;;;;;;;5.57;5.38;;;;;;;;;;6048306;29;20060;-92